createdAt,value
2023-05-06T00:00:37.849Z,175.86
2023-05-06T00:01:37.883Z,178.26
2023-05-06T00:02:38.121Z,178.52
2023-05-06T00:03:38.799Z,177.98
2023-05-06T00:04:38.118Z,178.01
2023-05-06T00:05:38.121Z,178.48
2023-05-06T00:06:38.158Z,178.57
2023-05-06T00:07:38.200Z,179.60
2023-05-06T00:08:38.242Z,175.21
2023-05-06T00:09:38.300Z,176.75
2023-05-06T00:10:38.326Z,177.20
2023-05-06T00:11:38.379Z,177.77
2023-05-06T00:12:38.511Z,177.88
2023-05-06T00:13:38.556Z,177.93
2023-05-06T00:14:38.557Z,180.23
2023-05-06T00:15:38.613Z,178.83
2023-05-06T00:16:38.697Z,176.95
2023-05-06T00:17:38.771Z,178.89
2023-05-06T00:18:38.807Z,176.21
2023-05-06T00:19:38.814Z,178.40
2023-05-06T00:20:38.796Z,179.59
2023-05-06T00:21:38.864Z,177.89
2023-05-06T00:22:38.893Z,179.20
2023-05-06T00:23:38.903Z,178.28
2023-05-06T00:24:38.905Z,178.85
2023-05-06T00:25:38.914Z,178.98
2023-05-06T00:26:38.952Z,177.19
2023-05-06T00:27:39.002Z,176.95
2023-05-06T00:28:39.050Z,178.53
2023-05-06T00:29:39.109Z,178.88
2023-05-06T00:30:39.122Z,178.93
2023-05-06T00:31:39.160Z,178.63
2023-05-06T00:32:39.221Z,179.10
2023-05-06T00:33:39.226Z,178.94
2023-05-06T00:34:39.303Z,181.01
2023-05-06T00:35:39.325Z,176.94
2023-05-06T00:36:39.396Z,176.64
2023-05-06T00:37:39.412Z,178.43
2023-05-06T00:38:39.479Z,178.55
2023-05-06T00:39:39.547Z,179.20
2023-05-06T00:40:39.579Z,178.63
2023-05-06T00:41:39.657Z,178.94
2023-05-06T00:42:39.709Z,177.80
2023-05-06T00:43:39.746Z,179.99
2023-05-06T00:44:39.824Z,179.60
2023-05-06T00:45:39.871Z,179.35
2023-05-06T00:46:39.888Z,179.70
2023-05-06T00:47:39.984Z,178.97
2023-05-06T00:48:40.017Z,179.81
2023-05-06T00:49:40.047Z,177.03
2023-05-06T00:50:40.119Z,177.92
2023-05-06T00:51:40.263Z,179.69
2023-05-06T00:52:40.255Z,176.23
2023-05-06T00:53:40.275Z,178.95
2023-05-06T00:54:40.340Z,178.04
2023-05-06T00:55:40.375Z,178.69
2023-05-06T00:56:40.397Z,176.55
2023-05-06T00:57:40.500Z,178.22
2023-05-06T00:58:40.523Z,179.65
2023-05-06T00:59:40.556Z,180.91
2023-05-06T01:00:40.612Z,177.76
2023-05-06T01:01:40.759Z,180.24
2023-05-06T01:02:47.407Z,179.03
2023-05-06T01:03:41.867Z,179.21
2023-05-06T01:04:40.732Z,179.57
2023-05-06T01:05:40.683Z,179.35
2023-05-06T01:06:40.681Z,181.05
2023-05-06T01:07:40.708Z,178.30
2023-05-06T01:08:40.686Z,177.99
2023-05-06T01:09:40.657Z,177.51
2023-05-06T01:10:40.676Z,181.70
2023-05-06T01:11:40.666Z,179.79
2023-05-06T01:12:40.745Z,179.10
2023-05-06T01:13:40.661Z,180.88
2023-05-06T01:14:40.742Z,179.99
2023-05-06T01:15:40.801Z,178.08
2023-05-06T01:16:40.895Z,179.29
2023-05-06T01:17:40.964Z,180.62
2023-05-06T01:18:40.973Z,179.47
2023-05-06T01:19:41.039Z,180.07
2023-05-06T01:20:41.193Z,181.79
2023-05-06T01:21:41.122Z,178.84
2023-05-06T01:22:41.179Z,177.97
2023-05-06T01:23:41.225Z,179.32
2023-05-06T01:24:41.317Z,180.01
2023-05-06T01:25:41.351Z,179.97
2023-05-06T01:26:41.431Z,181.17
2023-05-06T01:27:41.480Z,181.24
2023-05-06T01:28:41.492Z,182.51
2023-05-06T01:29:41.538Z,179.29
2023-05-06T01:30:41.575Z,180.61
2023-05-06T01:31:41.617Z,180.82
2023-05-06T01:32:41.733Z,182.80
2023-05-06T01:33:41.948Z,180.02
2023-05-06T01:34:41.744Z,179.22
2023-05-06T01:35:41.775Z,182.04
2023-05-06T01:36:41.839Z,180.96
2023-05-06T01:37:41.849Z,182.35
2023-05-06T01:38:41.889Z,181.51
2023-05-06T01:39:41.972Z,179.60
2023-05-06T01:40:41.984Z,179.80
2023-05-06T01:41:42.019Z,180.39
2023-05-06T01:42:42.096Z,179.67
2023-05-06T01:43:42.080Z,180.13
2023-05-06T01:44:42.153Z,178.61
2023-05-06T01:45:42.175Z,178.29
2023-05-06T01:46:42.322Z,179.13
2023-05-06T01:47:42.323Z,179.75
2023-05-06T01:48:42.286Z,180.24
2023-05-06T01:49:42.409Z,181.02
2023-05-06T01:50:42.487Z,179.28
2023-05-06T01:51:42.451Z,180.96
2023-05-06T01:52:42.452Z,179.53
2023-05-06T01:53:42.523Z,180.37
2023-05-06T01:54:42.539Z,179.44
2023-05-06T01:55:42.600Z,180.05
2023-05-06T01:56:42.642Z,179.60
2023-05-06T01:57:42.651Z,178.99
2023-05-06T01:58:42.698Z,178.97
2023-05-06T01:59:42.738Z,179.94
2023-05-06T02:00:42.815Z,178.21
2023-05-06T02:01:42.896Z,179.79
2023-05-06T02:02:43.038Z,180.02
2023-05-06T02:03:43.066Z,180.32
2023-05-06T02:04:42.996Z,179.55
2023-05-06T02:05:43.051Z,179.54
2023-05-06T02:06:43.132Z,178.60
2023-05-06T02:07:43.141Z,180.89
2023-05-06T02:08:43.216Z,180.00
2023-05-06T02:09:43.256Z,181.57
2023-05-06T02:10:43.334Z,180.26
2023-05-06T02:11:43.370Z,179.03
2023-05-06T02:12:43.472Z,179.39
2023-05-06T02:13:43.722Z,178.53
2023-05-06T02:14:43.563Z,180.45
2023-05-06T02:15:43.634Z,179.64
2023-05-06T02:16:43.717Z,181.05
2023-05-06T02:17:43.746Z,178.34
2023-05-06T02:18:43.814Z,178.52
2023-05-06T02:19:43.831Z,179.57
2023-05-06T02:20:43.877Z,179.32
2023-05-06T02:21:44.002Z,179.09
2023-05-06T02:22:44.001Z,180.80
2023-05-06T02:23:44.057Z,179.26
2023-05-06T02:24:44.106Z,179.00
2023-05-06T02:25:44.199Z,181.33
2023-05-06T02:26:44.225Z,178.50
2023-05-06T02:27:44.295Z,178.86
2023-05-06T02:28:44.335Z,180.80
2023-05-06T02:29:44.406Z,177.72
2023-05-06T02:30:44.411Z,179.56
2023-05-06T02:31:44.506Z,180.23
2023-05-06T02:32:44.587Z,179.11
2023-05-06T02:33:44.587Z,178.92
2023-05-06T02:34:44.633Z,177.73
2023-05-06T02:35:44.677Z,178.23
2023-05-06T02:36:44.728Z,178.90
2023-05-06T02:37:44.859Z,179.36
2023-05-06T02:38:44.844Z,177.38
2023-05-06T02:39:44.936Z,179.75
2023-05-06T02:40:44.948Z,179.52
2023-05-06T02:41:45.043Z,177.74
2023-05-06T02:42:45.117Z,179.45
2023-05-06T02:43:45.138Z,179.94
2023-05-06T02:44:45.182Z,181.06
2023-05-06T02:45:45.263Z,180.00
2023-05-06T02:46:45.300Z,181.85
2023-05-06T02:47:45.339Z,180.74
2023-05-06T02:48:45.412Z,177.38
2023-05-06T02:49:45.422Z,180.58
2023-05-06T02:50:45.520Z,179.99
2023-05-06T02:51:45.538Z,179.43
2023-05-06T02:52:45.636Z,182.86
2023-05-06T02:53:45.719Z,180.85
2023-05-06T02:54:45.724Z,180.02
2023-05-06T02:55:45.756Z,179.09
2023-05-06T02:56:45.779Z,180.36
2023-05-06T02:57:45.887Z,178.53
2023-05-06T02:58:45.937Z,179.49
2023-05-06T02:59:45.979Z,179.44
2023-05-06T03:00:46.080Z,178.55
2023-05-06T03:01:46.071Z,178.42
2023-05-06T03:02:46.178Z,180.43
2023-05-06T03:03:46.266Z,178.18
2023-05-06T03:04:46.241Z,178.20
2023-05-06T03:05:46.308Z,179.62
2023-05-06T03:06:46.400Z,180.15
2023-05-06T03:07:46.413Z,180.18
2023-05-06T03:08:46.508Z,182.57
2023-05-06T03:09:46.777Z,179.37
2023-05-06T03:10:46.590Z,180.71
2023-05-06T03:11:46.658Z,179.38
2023-05-06T03:12:46.696Z,178.07
2023-05-06T03:13:46.770Z,179.98
2023-05-06T03:14:46.798Z,177.15
2023-05-06T03:15:46.847Z,179.28
2023-05-06T03:16:46.941Z,179.91
2023-05-06T03:17:46.966Z,177.32
2023-05-06T03:18:47.018Z,178.77
2023-05-06T03:19:47.057Z,178.98
2023-05-06T03:20:47.099Z,177.80
2023-05-06T03:21:47.206Z,179.05
2023-05-06T03:22:47.244Z,176.69
2023-05-06T03:23:47.305Z,180.36
2023-05-06T03:24:47.353Z,179.86
2023-05-06T03:25:47.540Z,178.49
2023-05-06T03:26:47.515Z,180.39
2023-05-06T03:27:47.534Z,180.80
2023-05-06T03:28:47.580Z,176.41
2023-05-06T03:29:47.625Z,179.68
2023-05-06T03:30:47.725Z,177.08
2023-05-06T03:31:47.794Z,180.29
2023-05-06T03:32:47.908Z,180.08
2023-05-06T03:33:47.852Z,177.07
2023-05-06T03:34:47.955Z,180.00
2023-05-06T03:35:48.250Z,179.37
2023-05-06T03:36:48.008Z,175.71
2023-05-06T03:37:48.065Z,177.82
2023-05-06T03:38:48.157Z,179.66
2023-05-06T03:39:48.182Z,175.72
2023-05-06T03:40:48.250Z,179.79
2023-05-06T03:41:48.335Z,179.04
2023-05-06T03:42:48.388Z,179.68
2023-05-06T03:43:48.446Z,178.98
2023-05-06T03:44:48.465Z,179.48
2023-05-06T03:45:48.544Z,181.09
2023-05-06T03:46:48.604Z,176.90
2023-05-06T03:47:48.651Z,176.54
2023-05-06T03:48:48.687Z,178.30
2023-05-06T03:49:48.740Z,179.92
2023-05-06T03:50:48.816Z,178.15
2023-05-06T03:51:48.848Z,181.23
2023-05-06T03:52:48.902Z,176.44
2023-05-06T03:53:48.968Z,178.52
2023-05-06T03:54:49.105Z,179.13
2023-05-06T03:55:49.113Z,178.21
2023-05-06T03:56:49.161Z,179.48
2023-05-06T03:57:49.274Z,179.42
2023-05-06T03:58:49.248Z,177.88
2023-05-06T03:59:49.348Z,178.09
2023-05-06T04:00:49.374Z,178.28
2023-05-06T04:01:49.483Z,181.02
2023-05-06T04:02:49.544Z,176.06
2023-05-06T04:03:49.667Z,177.71
2023-05-06T04:04:49.596Z,178.40
2023-05-06T04:05:49.683Z,178.69
2023-05-06T04:06:49.696Z,177.13
2023-05-06T04:07:49.746Z,176.80
2023-05-06T04:08:49.817Z,177.07
2023-05-06T04:09:49.904Z,176.89
2023-05-06T04:10:49.925Z,177.92
2023-05-06T04:11:49.952Z,178.62
2023-05-06T04:12:50.108Z,178.79
2023-05-06T04:13:50.075Z,177.50
2023-05-06T04:14:50.099Z,177.19
2023-05-06T04:15:50.162Z,174.96
2023-05-06T04:16:50.182Z,177.06
2023-05-06T04:17:50.220Z,179.72
2023-05-06T04:18:50.266Z,179.58
2023-05-06T04:19:50.289Z,179.90
2023-05-06T04:20:50.343Z,174.99
2023-05-06T04:21:50.378Z,175.86
2023-05-06T04:22:50.471Z,175.31
2023-05-06T04:23:52.249Z,176.28
2023-05-06T04:24:50.520Z,176.48
2023-05-06T04:25:50.564Z,176.62
2023-05-06T04:26:50.602Z,178.67
2023-05-06T04:27:50.650Z,178.13
2023-05-06T04:28:50.687Z,174.93
2023-05-06T04:29:50.759Z,178.51
2023-05-06T04:30:50.787Z,175.43
2023-05-06T04:31:50.874Z,175.01
2023-05-06T04:32:50.929Z,177.41
2023-05-06T04:33:50.995Z,177.74
2023-05-06T04:34:51.037Z,178.65
2023-05-06T04:35:51.118Z,176.42
2023-05-06T04:36:51.156Z,175.63
2023-05-06T04:37:51.215Z,176.37
2023-05-06T04:38:51.263Z,176.53
2023-05-06T04:39:51.330Z,175.70
2023-05-06T04:40:51.366Z,178.91
2023-05-06T04:41:51.453Z,179.05
2023-05-06T04:42:51.510Z,178.67
2023-05-06T04:43:51.586Z,175.55
2023-05-06T04:44:51.614Z,179.69
2023-05-06T04:45:51.767Z,181.15
2023-05-06T04:46:51.726Z,178.89
2023-05-06T04:47:51.828Z,175.37
2023-05-06T04:48:52.271Z,180.97
2023-05-06T04:49:51.917Z,177.16
2023-05-06T04:50:51.925Z,177.10
2023-05-06T04:51:52.080Z,176.01
2023-05-06T04:52:52.001Z,175.51
2023-05-06T04:53:52.062Z,176.44
2023-05-06T04:54:52.075Z,178.19
2023-05-06T04:55:52.142Z,174.91
2023-05-06T04:56:52.173Z,177.15
2023-05-06T04:57:52.225Z,176.65
2023-05-06T04:58:52.342Z,175.79
2023-05-06T04:59:52.343Z,175.52
2023-05-06T05:00:52.374Z,174.85
2023-05-06T05:01:52.494Z,176.21
2023-05-06T05:02:52.578Z,177.21
2023-05-06T05:03:52.560Z,177.13
2023-05-06T05:04:52.572Z,178.90
2023-05-06T05:05:52.639Z,176.88
2023-05-06T05:06:52.681Z,178.00
2023-05-06T05:07:52.711Z,178.02
2023-05-06T05:08:53.847Z,176.66
2023-05-06T05:09:52.862Z,176.43
2023-05-06T05:10:52.923Z,173.70
2023-05-06T05:11:52.998Z,172.78
2023-05-06T05:12:53.079Z,175.11
2023-05-06T05:13:54.741Z,175.56
2023-05-06T05:14:53.086Z,176.84
2023-05-06T05:15:53.091Z,176.83
2023-05-06T05:16:53.139Z,176.47
2023-05-06T05:17:53.234Z,174.00
2023-05-06T05:18:53.055Z,174.70
2023-05-06T05:19:53.037Z,175.19
2023-05-06T05:20:53.065Z,174.55
2023-05-06T05:21:53.036Z,178.18
2023-05-06T05:22:53.039Z,174.99
2023-05-06T05:23:53.049Z,174.42
2023-05-06T05:24:53.002Z,176.38
2023-05-06T05:25:53.009Z,176.59
2023-05-06T05:26:53.004Z,175.97
2023-05-06T05:27:52.990Z,174.51
2023-05-06T05:28:52.975Z,176.03
2023-05-06T05:29:52.984Z,175.34
2023-05-06T05:30:53.006Z,175.38
2023-05-06T05:31:52.970Z,176.35
2023-05-06T05:32:53.078Z,177.24
2023-05-06T05:33:53.408Z,175.74
2023-05-06T05:34:52.942Z,175.43
2023-05-06T05:35:52.929Z,174.11
2023-05-06T05:36:52.920Z,179.52
2023-05-06T05:37:52.940Z,177.14
2023-05-06T05:38:52.928Z,176.56
2023-05-06T05:39:52.925Z,176.22
2023-05-06T05:40:52.912Z,176.26
2023-05-06T05:41:52.916Z,175.33
2023-05-06T05:42:52.883Z,175.85
2023-05-06T05:43:52.937Z,175.47
2023-05-06T05:44:52.866Z,177.14
2023-05-06T05:45:52.879Z,177.88
2023-05-06T05:46:52.909Z,178.97
2023-05-06T05:47:52.911Z,176.87
2023-05-06T05:48:52.867Z,175.79
2023-05-06T05:49:52.817Z,176.40
2023-05-06T05:50:52.877Z,179.40
2023-05-06T05:51:52.797Z,175.93
2023-05-06T05:52:52.806Z,177.22
2023-05-06T05:53:52.790Z,177.39
2023-05-06T05:54:52.787Z,179.10
2023-05-06T05:55:52.809Z,176.63
2023-05-06T05:56:52.894Z,177.65
2023-05-06T05:57:52.938Z,176.96
2023-05-06T05:58:53.015Z,176.33
2023-05-06T05:59:53.013Z,177.32
2023-05-06T06:00:53.054Z,177.00
2023-05-06T06:01:53.148Z,176.59
2023-05-06T06:02:53.288Z,179.17
2023-05-06T06:03:53.465Z,174.81
2023-05-06T06:04:53.331Z,178.37
2023-05-06T06:05:53.394Z,175.70
2023-05-06T06:06:53.413Z,177.70
2023-05-06T06:07:53.488Z,174.41
2023-05-06T06:08:53.843Z,175.24
2023-05-06T06:09:53.573Z,174.49
2023-05-06T06:10:53.632Z,176.62
2023-05-06T06:11:53.708Z,178.18
2023-05-06T06:12:53.797Z,176.09
2023-05-06T06:13:53.863Z,177.09
2023-05-06T06:14:53.867Z,177.55
2023-05-06T06:15:54.342Z,176.58
2023-05-06T06:16:54.064Z,178.92
2023-05-06T06:17:54.121Z,177.60
2023-05-06T06:18:54.127Z,176.16
2023-05-06T06:19:54.167Z,174.43
2023-05-06T06:20:54.190Z,178.15
2023-05-06T06:21:54.480Z,177.91
2023-05-06T06:22:54.311Z,177.62
2023-05-06T06:23:54.392Z,179.04
2023-05-06T06:24:54.441Z,176.85
2023-05-06T06:25:54.464Z,176.24
2023-05-06T06:26:54.496Z,176.93
2023-05-06T06:27:54.538Z,174.28
2023-05-06T06:28:54.635Z,174.58
2023-05-06T06:29:54.688Z,174.67
2023-05-06T06:30:54.682Z,177.31
2023-05-06T06:31:54.743Z,177.34
2023-05-06T06:32:54.847Z,177.20
2023-05-06T06:33:54.805Z,175.71
2023-05-06T06:34:54.835Z,176.01
2023-05-06T06:35:55.313Z,176.81
2023-05-06T06:36:54.913Z,177.56
2023-05-06T06:37:55.134Z,176.93
2023-05-06T06:38:55.028Z,174.10
2023-05-06T06:39:55.095Z,175.39
2023-05-06T06:40:55.089Z,177.51
2023-05-06T06:41:55.148Z,176.50
2023-05-06T06:42:55.154Z,176.86
2023-05-06T06:43:55.214Z,177.06
2023-05-06T06:44:55.333Z,176.97
2023-05-06T06:45:55.339Z,176.74
2023-05-06T06:46:55.310Z,174.74
2023-05-06T06:47:55.533Z,175.69
2023-05-06T06:48:55.443Z,176.41
2023-05-06T06:49:55.461Z,177.64
2023-05-06T06:50:55.489Z,178.07
2023-05-06T06:51:55.538Z,176.65
2023-05-06T06:52:55.588Z,177.42
2023-05-06T06:53:55.687Z,180.87
2023-05-06T06:54:55.731Z,176.43
2023-05-06T06:55:55.763Z,175.03
2023-05-06T06:56:55.801Z,175.72
2023-05-06T06:57:55.846Z,174.74
2023-05-06T06:58:55.870Z,175.69
2023-05-06T06:59:55.903Z,171.88
2023-05-06T07:00:55.975Z,173.97
2023-05-06T07:01:56.002Z,173.61
2023-05-06T07:02:56.026Z,171.54
2023-05-06T07:03:56.126Z,175.67
2023-05-06T07:04:56.117Z,174.40
2023-05-06T07:05:56.200Z,174.53
2023-05-06T07:06:56.216Z,174.13
2023-05-06T07:07:56.271Z,174.63
2023-05-06T07:08:56.342Z,171.75
2023-05-06T07:09:56.435Z,172.71
2023-05-06T07:10:56.415Z,168.93
2023-05-06T07:11:56.434Z,170.48
2023-05-06T07:12:56.511Z,169.70
2023-05-06T07:13:56.507Z,171.45
2023-05-06T07:14:56.607Z,170.16
2023-05-06T07:15:56.619Z,171.81
2023-05-06T07:16:56.733Z,171.84
2023-05-06T07:17:56.744Z,168.75
2023-05-06T07:18:56.765Z,166.43
2023-05-06T07:19:56.783Z,171.28
2023-05-06T07:20:56.846Z,167.51
2023-05-06T07:21:56.897Z,168.30
2023-05-06T07:22:56.897Z,168.90
2023-05-06T07:23:56.945Z,168.64
2023-05-06T07:24:56.972Z,164.44
2023-05-06T07:25:57.094Z,168.01
2023-05-06T07:26:57.032Z,167.11
2023-05-06T07:27:57.082Z,161.79
2023-05-06T07:28:57.130Z,167.57
2023-05-06T07:29:57.136Z,163.78
2023-05-06T07:30:57.207Z,165.96
2023-05-06T07:31:57.214Z,166.31
2023-05-06T07:32:57.311Z,164.61
2023-05-06T07:33:57.313Z,162.91
2023-05-06T07:34:57.303Z,165.87
2023-05-06T07:35:57.344Z,165.06
2023-05-06T07:36:57.394Z,165.62
2023-05-06T07:37:57.436Z,165.89
2023-05-06T07:38:57.460Z,164.43
2023-05-06T07:39:57.528Z,164.40
2023-05-06T07:40:57.515Z,163.57
2023-05-06T07:41:57.649Z,165.62
2023-05-06T07:42:57.591Z,167.40
2023-05-06T07:43:57.609Z,164.65
2023-05-06T07:44:57.594Z,161.94
2023-05-06T07:45:57.666Z,164.38
2023-05-06T07:46:57.787Z,161.51
2023-05-06T07:47:57.685Z,161.41
2023-05-06T07:48:57.686Z,164.82
2023-05-06T07:49:57.692Z,163.94
2023-05-06T07:50:57.727Z,161.51
2023-05-06T07:51:57.732Z,162.90
2023-05-06T07:52:57.759Z,162.26
2023-05-06T07:53:57.819Z,164.25
2023-05-06T07:54:57.825Z,159.21
2023-05-06T07:55:57.850Z,163.24
2023-05-06T07:56:57.873Z,161.42
2023-05-06T07:57:57.905Z,163.67
2023-05-06T07:58:57.954Z,162.30
2023-05-06T07:59:57.978Z,164.15
2023-05-06T08:00:58.031Z,162.22
2023-05-06T08:01:58.060Z,163.37
2023-05-06T08:02:58.259Z,164.06
2023-05-06T08:03:58.300Z,165.01
2023-05-06T08:04:58.214Z,163.79
2023-05-06T08:05:58.215Z,163.82
2023-05-06T08:06:58.254Z,160.55
2023-05-06T08:07:58.288Z,163.81
2023-05-06T08:08:58.304Z,162.04
2023-05-06T08:09:58.357Z,162.13
2023-05-06T08:10:58.843Z,158.75
2023-05-06T08:11:58.479Z,163.45
2023-05-06T08:12:58.538Z,162.97
2023-05-06T08:13:58.524Z,161.22
2023-05-06T08:14:58.485Z,162.17
2023-05-06T08:15:58.589Z,159.68
2023-05-06T08:16:58.580Z,162.66
2023-05-06T08:18:02.156Z,161.73
2023-05-06T08:18:59.561Z,161.90
2023-05-06T08:19:58.567Z,161.82
2023-05-06T08:20:58.586Z,162.16
2023-05-06T08:21:58.539Z,161.35
2023-05-06T08:22:58.523Z,158.91
2023-05-06T08:23:58.523Z,163.45
2023-05-06T08:24:58.496Z,162.49
2023-05-06T08:25:58.500Z,162.21
2023-05-06T08:26:58.511Z,160.55
2023-05-06T08:27:58.511Z,164.81
2023-05-06T08:28:58.530Z,163.54
2023-05-06T08:29:58.517Z,162.33
2023-05-06T08:30:58.472Z,161.73
2023-05-06T08:31:58.543Z,162.98
2023-05-06T08:32:58.466Z,160.33
2023-05-06T08:33:58.437Z,161.76
2023-05-06T08:34:58.506Z,161.94
2023-05-06T08:35:58.870Z,159.81
2023-05-06T08:36:58.456Z,159.87
2023-05-06T08:37:58.473Z,163.84
2023-05-06T08:38:58.455Z,164.03
2023-05-06T08:39:59.915Z,163.86
2023-05-06T08:40:58.477Z,165.59
2023-05-06T08:41:58.487Z,164.55
2023-05-06T08:42:58.482Z,164.81
2023-05-06T08:43:58.480Z,159.40
2023-05-06T08:44:58.480Z,163.86
2023-05-06T08:45:58.498Z,160.83
2023-05-06T08:46:58.514Z,164.40
2023-05-06T08:47:58.524Z,165.67
2023-05-06T08:48:58.506Z,162.09
2023-05-06T08:49:58.538Z,165.70
2023-05-06T08:50:58.626Z,161.86
2023-05-06T08:51:58.604Z,166.29
2023-05-06T08:52:58.631Z,164.23
2023-05-06T08:53:58.675Z,163.41
2023-05-06T08:54:58.700Z,164.16
2023-05-06T08:55:58.736Z,166.91
2023-05-06T08:56:58.737Z,164.98
2023-05-06T08:57:58.759Z,161.51
2023-05-06T08:58:58.789Z,166.29
2023-05-06T08:59:58.790Z,165.60
2023-05-06T09:00:58.861Z,164.01
2023-05-06T09:01:59.000Z,166.37
2023-05-06T09:02:58.943Z,163.28
2023-05-06T09:03:58.886Z,164.87
2023-05-06T09:04:58.898Z,163.74
2023-05-06T09:05:58.931Z,169.05
2023-05-06T09:06:58.952Z,166.61
2023-05-06T09:07:58.985Z,165.61
2023-05-06T09:08:59.012Z,166.96
2023-05-06T09:09:59.020Z,163.64
2023-05-06T09:10:59.066Z,166.18
2023-05-06T09:11:59.075Z,165.16
2023-05-06T09:12:59.155Z,166.50
2023-05-06T09:13:59.165Z,168.63
2023-05-06T09:14:59.144Z,166.45
2023-05-06T09:15:59.195Z,167.25
2023-05-06T09:16:59.297Z,163.77
2023-05-06T09:17:59.319Z,166.12
2023-05-06T09:18:59.269Z,167.32
2023-05-06T09:19:59.293Z,167.33
2023-05-06T09:21:00.654Z,165.07
2023-05-06T09:21:59.366Z,168.92
2023-05-06T09:22:59.422Z,166.20
2023-05-06T09:23:59.536Z,166.60
2023-05-06T09:24:59.529Z,169.26
2023-05-06T09:25:59.529Z,166.41
2023-05-06T09:26:59.576Z,166.67
2023-05-06T09:27:59.616Z,166.79
2023-05-06T09:28:59.640Z,167.60
2023-05-06T09:29:59.690Z,168.47
2023-05-06T09:30:59.809Z,168.36
2023-05-06T09:31:59.761Z,168.90
2023-05-06T09:32:59.835Z,170.09
2023-05-06T09:33:59.831Z,167.98
2023-05-06T09:34:59.898Z,169.63
2023-05-06T09:35:59.920Z,165.41
2023-05-06T09:36:59.950Z,167.91
2023-05-06T09:38:00.004Z,167.89
2023-05-06T09:39:00.043Z,167.38
2023-05-06T09:40:00.123Z,167.01
2023-05-06T09:41:00.145Z,168.40
2023-05-06T09:42:00.150Z,169.25
2023-05-06T09:43:00.242Z,167.79
2023-05-06T09:44:00.253Z,167.60
2023-05-06T09:45:01.587Z,167.65
2023-05-06T09:46:00.371Z,169.60
2023-05-06T09:47:00.401Z,166.37
2023-05-06T09:48:00.464Z,168.80
2023-05-06T09:49:00.491Z,169.15
2023-05-06T09:50:00.603Z,167.14
2023-05-06T09:51:01.267Z,169.77
2023-05-06T09:52:00.588Z,166.07
2023-05-06T09:53:00.629Z,167.82
2023-05-06T09:54:00.657Z,167.06
2023-05-06T09:55:00.706Z,167.63
2023-05-06T09:56:00.735Z,168.16
2023-05-06T09:57:01.147Z,166.58
2023-05-06T09:58:00.803Z,165.61
2023-05-06T09:59:00.838Z,163.58
2023-05-06T10:00:00.858Z,167.92
2023-05-06T10:01:00.890Z,168.74
2023-05-06T10:02:00.944Z,168.77
2023-05-06T10:03:01.069Z,166.14
2023-05-06T10:04:01.219Z,167.92
2023-05-06T10:05:01.209Z,167.93
2023-05-06T10:06:01.050Z,165.34
2023-05-06T10:07:01.080Z,166.16
2023-05-06T10:08:01.134Z,165.13
2023-05-06T10:09:01.188Z,163.39
2023-05-06T10:10:01.207Z,165.59
2023-05-06T10:11:01.221Z,166.36
2023-05-06T10:12:01.239Z,165.52
2023-05-06T10:13:01.428Z,162.33
2023-05-06T10:14:01.347Z,164.03
2023-05-06T10:15:01.351Z,166.46
2023-05-06T10:16:01.400Z,165.80
2023-05-06T10:17:01.410Z,164.83
2023-05-06T10:18:01.482Z,162.21
2023-05-06T10:19:01.477Z,163.04
2023-05-06T10:20:01.526Z,165.31
2023-05-06T10:21:01.522Z,163.73
2023-05-06T10:22:02.470Z,163.10
2023-05-06T10:23:01.596Z,161.31
2023-05-06T10:24:01.685Z,163.13
2023-05-06T10:25:01.667Z,161.47
2023-05-06T10:26:01.668Z,164.02
2023-05-06T10:27:01.726Z,159.70
2023-05-06T10:28:02.699Z,162.68
2023-05-06T10:29:01.782Z,163.31
2023-05-06T10:30:01.765Z,161.96
2023-05-06T10:31:01.849Z,163.56
2023-05-06T10:32:01.888Z,161.87
2023-05-06T10:33:01.893Z,159.98
2023-05-06T10:34:01.927Z,162.15
2023-05-06T10:35:01.908Z,160.91
2023-05-06T10:36:01.919Z,161.06
2023-05-06T10:37:01.947Z,158.98
2023-05-06T10:38:01.977Z,163.31
2023-05-06T10:39:01.937Z,162.49
2023-05-06T10:40:01.973Z,163.49
2023-05-06T10:41:01.974Z,164.18
2023-05-06T10:42:01.982Z,161.13
2023-05-06T10:43:01.976Z,159.91
2023-05-06T10:44:02.047Z,162.41
2023-05-06T10:45:02.000Z,160.54
2023-05-06T10:46:02.171Z,162.00
2023-05-06T10:47:02.033Z,159.17
2023-05-06T10:48:02.117Z,159.13
2023-05-06T10:49:02.063Z,160.92
2023-05-06T10:50:02.013Z,163.59
2023-05-06T10:51:02.410Z,161.51
2023-05-06T10:52:02.021Z,158.34
2023-05-06T10:53:01.994Z,160.92
2023-05-06T10:54:02.188Z,161.62
2023-05-06T10:55:02.030Z,161.06
2023-05-06T10:56:02.056Z,160.27
2023-05-06T10:57:02.064Z,157.70
2023-05-06T10:58:02.081Z,160.06
2023-05-06T10:59:02.089Z,162.43
2023-05-06T11:00:02.209Z,160.81
2023-05-06T11:01:02.112Z,159.37
2023-05-06T11:02:02.102Z,161.26
2023-05-06T11:03:02.291Z,162.70
2023-05-06T11:04:02.415Z,160.21
2023-05-06T11:05:02.131Z,157.79
2023-05-06T11:06:02.150Z,158.14
2023-05-06T11:07:02.151Z,157.26
2023-05-06T11:08:02.165Z,159.89
2023-05-06T11:09:02.149Z,159.33
2023-05-06T11:10:02.280Z,160.32
2023-05-06T11:11:02.160Z,159.00
2023-05-06T11:12:02.189Z,160.55
2023-05-06T11:13:02.196Z,159.00
2023-05-06T11:14:02.230Z,161.34
2023-05-06T11:15:02.203Z,159.34
2023-05-06T11:16:02.225Z,159.34
2023-05-06T11:17:02.238Z,160.23
2023-05-06T11:18:02.268Z,160.18
2023-05-06T11:19:02.275Z,158.93
2023-05-06T11:20:02.257Z,159.59
2023-05-06T11:21:02.252Z,158.59
2023-05-06T11:22:02.261Z,160.30
2023-05-06T11:23:02.241Z,159.04
2023-05-06T11:24:02.253Z,159.57
2023-05-06T11:25:02.224Z,162.55
2023-05-06T11:26:02.320Z,160.65
2023-05-06T11:27:02.256Z,159.64
2023-05-06T11:28:02.244Z,162.02
2023-05-06T11:29:02.260Z,158.96
2023-05-06T11:30:02.239Z,157.82
2023-05-06T11:31:02.296Z,159.03
2023-05-06T11:32:02.232Z,162.28
2023-05-06T11:33:05.115Z,160.16
2023-05-06T11:34:02.230Z,163.07
2023-05-06T11:35:02.204Z,158.95
2023-05-06T11:36:02.214Z,158.25
2023-05-06T11:37:02.326Z,158.81
2023-05-06T11:38:02.248Z,156.24
2023-05-06T11:39:04.086Z,159.00
2023-05-06T11:40:02.167Z,159.18
2023-05-06T11:41:02.210Z,159.20
2023-05-06T11:42:02.276Z,159.26
2023-05-06T11:43:02.168Z,157.80
2023-05-06T11:44:02.184Z,158.77
2023-05-06T11:45:02.157Z,159.24
2023-05-06T11:46:02.125Z,155.54
2023-05-06T11:47:02.113Z,159.74
2023-05-06T11:48:02.161Z,155.72
2023-05-06T11:49:02.123Z,158.34
2023-05-06T11:50:02.144Z,156.77
2023-05-06T11:51:02.098Z,156.07
2023-05-06T11:52:02.126Z,157.83
2023-05-06T11:53:02.084Z,154.96
2023-05-06T11:54:02.096Z,157.63
2023-05-06T11:55:02.060Z,158.77
2023-05-06T11:56:02.396Z,159.19
2023-05-06T11:57:02.060Z,157.16
2023-05-06T11:58:02.041Z,155.94
2023-05-06T11:59:02.037Z,160.84
2023-05-06T12:00:02.012Z,157.76
2023-05-06T12:01:02.030Z,160.24
2023-05-06T12:02:02.056Z,158.43
2023-05-06T12:03:02.047Z,158.39
2023-05-06T12:04:02.198Z,158.99
2023-05-06T12:05:02.153Z,158.86
2023-05-06T12:06:02.038Z,163.19
2023-05-06T12:07:01.986Z,159.83
2023-05-06T12:08:02.212Z,160.59
2023-05-06T12:09:01.973Z,160.23
2023-05-06T12:10:01.981Z,160.56
2023-05-06T12:11:02.426Z,161.41
2023-05-06T12:12:01.962Z,160.31
2023-05-06T12:13:01.991Z,158.90
2023-05-06T12:14:02.073Z,159.89
2023-05-06T12:15:01.939Z,161.66
2023-05-06T12:16:01.920Z,159.20
2023-05-06T12:17:01.909Z,160.48
2023-05-06T12:18:02.011Z,161.43
2023-05-06T12:19:01.912Z,159.57
2023-05-06T12:20:01.873Z,161.72
2023-05-06T12:21:01.867Z,162.45
2023-05-06T12:22:01.932Z,159.95
2023-05-06T12:23:01.878Z,164.03
2023-05-06T12:24:01.943Z,160.59
2023-05-06T12:25:01.838Z,159.85
2023-05-06T12:26:01.859Z,162.04
2023-05-06T12:27:01.835Z,159.88
2023-05-06T12:28:01.826Z,161.97
2023-05-06T12:29:01.875Z,161.79